Time;durP1;ratioP1;P1;durP2;ratioP2;P2;SDS_P1;SDS_P2;PMS_P1;PMS_P2;Temp;Humidity;BMP_temperature;BMP_pressure;BME280_temperature;BME280_humidity;BME280_pressure;Samples;Min_cycle;Max_cycle;Signal;HPM_P1;HPM_P2
2022/05/10 00:01:30;;;;;;;;;24.67;21.33;;;;;21.09;45.57;101713.75;5096568;27;46273;-42
2022/05/10 00:03:57;;;;;;;;;25.00;23.00;;;;;21.06;45.60;101710.59;5096855;27;45377;-43
2022/05/10 00:06:23;;;;;;;;;30.33;24.33;;;;;21.02;45.44;101707.41;5096774;27;45326;-42
2022/05/10 00:08:49;;;;;;;;;29.00;25.33;;;;;20.93;46.05;101695.88;5097371;27;45604;-41
2022/05/10 00:11:14;;;;;;;;;24.33;22.00;;;;;20.86;46.12;101691.47;5096283;27;45304;-42
2022/05/10 00:13:40;;;;;;;;;24.67;21.33;;;;;20.94;46.95;101702.13;5096423;27;45314;-40
2022/05/10 00:16:09;;;;;;;;;27.33;22.33;;;;;20.93;46.81;101703.16;5096664;27;45356;-46
2022/05/10 00:18:35;;;;;;;;;31.67;26.67;;;;;20.93;46.40;101700.47;5097030;27;45473;-41
2022/05/10 00:21:00;;;;;;;;;26.67;21.67;;;;;20.91;47.12;101702.53;5096640;27;45491;-43
2022/05/10 00:23:25;;;;;;;;;26.00;25.00;;;;;20.91;47.04;101702.53;5096614;27;45436;-41
2022/05/10 00:25:51;;;;;;;;;25.67;23.00;;;;;20.90;47.11;101696.28;5096756;27;45420;-41
2022/05/10 00:28:17;;;;;;;;;28.00;26.67;;;;;20.90;46.71;101699.00;5096624;27;45241;-40
2022/05/10 00:30:43;;;;;;;;;26.00;23.00;;;;;20.82;47.17;101690.16;5096196;27;45506;-39
2022/05/10 00:33:13;;;;;;;;;20.67;19.33;;;;;20.85;47.01;101700.59;5096306;27;45414;-40
2022/05/10 00:35:39;;;;;;;;;25.33;23.00;;;;;20.82;46.84;101698.28;5096002;27;45440;-40
2022/05/10 00:38:04;;;;;;;;;23.67;23.67;;;;;20.74;46.91;101695.69;5096365;27;45325;-41
2022/05/10 00:40:34;;;;;;;;;29.00;23.33;;;;;20.70;47.50;101687.13;5095978;27;47104;-41
2022/05/10 00:43:28;;;;;;;;;25.67;23.00;;;;;20.65;47.09;101693.09;5096149;27;45375;-41
2022/05/10 00:45:53;;;;;;;;;28.67;24.67;;;;;20.58;48.07;101689.47;5095986;27;45465;-42
2022/05/10 00:48:33;;;;;;;;;31.33;25.00;;;;;20.48;48.28;101683.53;5096499;27;45431;-42
2022/05/10 00:51:13;;;;;;;;;26.33;23.33;;;;;20.32;48.97;101670.19;5095874;27;45505;-42
2022/05/10 00:53:48;;;;;;;;;29.00;26.67;;;;;20.26;49.15;101668.22;5099044;27;45755;-41
2022/05/10 00:56:25;;;;;;;;;27.00;25.33;;;;;20.31;49.49;101676.59;5099387;27;45463;-42
2022/05/10 00:59:28;;;;;;;;;29.00;29.00;;;;;20.33;48.87;101674.56;5099661;27;45479;-42
2022/05/10 01:02:02;;;;;;;;;27.00;24.00;;;;;20.33;49.42;101661.88;5099217;27;46370;-43
2022/05/10 01:04:35;;;;;;;;;26.33;26.33;;;;;20.28;49.68;101661.63;5099204;27;45318;-41
2022/05/10 01:07:27;;;;;;;;;27.33;26.00;;;;;20.30;48.99;101656.03;5099389;27;45452;-42
2022/05/10 01:09:58;;;;;;;;;27.00;24.67;;;;;20.33;49.19;101661.06;5098017;27;45448;-41
2022/05/10 01:12:42;;;;;;;;;31.67;27.33;;;;;20.34;48.91;101662.72;5099354;27;47159;-41
2022/05/10 01:15:17;;;;;;;;;29.67;26.00;;;;;20.34;49.15;101662.72;5098991;27;45289;-42
2022/05/10 01:17:46;;;;;;;;;31.00;27.33;;;;;20.32;49.93;101662.91;5099472;27;45272;-42
2022/05/10 01:20:17;;;;;;;;;27.00;24.00;;;;;20.29;49.50;101654.34;5099260;27;45435;-41
2022/05/10 01:23:19;;;;;;;;;29.00;23.00;;;;;20.28;49.61;101658.09;5098710;27;46141;-42
2022/05/10 01:26:20;;;;;;;;;28.67;26.00;;;;;20.22;49.60;101643.44;5098854;27;45732;-41
2022/05/10 01:28:52;;;;;;;;;20.00;19.67;;;;;20.16;49.88;101645.03;5098782;27;45241;-41
2022/05/10 01:31:30;;;;;;;;;28.33;24.67;;;;;20.19;49.94;101647.38;5098981;27;45479;-43
2022/05/10 01:34:03;;;;;;;;;25.67;25.33;;;;;20.20;49.91;101642.81;5098527;27;46540;-41
2022/05/10 01:36:40;;;;;;;;;25.67;24.00;;;;;20.03;49.18;101612.47;5098643;27;45309;-41
2022/05/10 01:39:32;;;;;;;;;27.00;23.67;;;;;20.12;50.15;101643.75;5098964;27;45374;-41
2022/05/10 01:42:21;;;;;;;;;31.00;26.33;;;;;20.09;49.59;101638.72;5098932;27;45428;-41
2022/05/10 01:44:56;;;;;;;;;29.33;28.00;;;;;20.06;49.57;101636.41;5098254;27;47028;-42
2022/05/10 01:47:55;;;;;;;;;26.67;26.00;;;;;19.99;50.26;101632.78;5098298;27;45285;-41
2022/05/10 01:50:33;;;;;;;;;34.00;29.00;;;;;19.92;49.77;101635.38;5055349;28;45568;-41
2022/05/10 01:53:04;;;;;;;;;35.00;31.00;;;;;19.86;50.94;101627.19;5055744;28;45417;-41
2022/05/10 01:55:37;;;;;;;;;31.33;26.33;;;;;19.72;51.09;101609.97;5055614;28;46323;-48
2022/05/10 01:58:11;;;;;;;;;24.00;22.33;;;;;19.76;51.60;101624.75;5055443;28;45416;-42
2022/05/10 02:00:39;;;;;;;;;32.33;26.33;;;;;19.76;51.06;101622.03;5055567;28;45609;-44
2022/05/10 02:03:18;;;;;;;;;30.00;28.33;;;;;19.71;51.07;101619.06;5055166;28;45445;-43
2022/05/10 02:06:11;;;;;;;;;29.00;26.33;;;;;19.71;51.11;101619.06;5055084;28;47493;-41
2022/05/10 02:08:51;;;;;;;;;35.00;27.33;;;;;19.66;51.86;101627.72;4995244;28;45485;-41
2022/05/10 02:11:17;;;;;;;;;28.33;23.67;;;;;19.63;52.45;101619.16;4995787;28;45413;-41
2022/05/10 02:14:09;;;;;;;;;34.00;28.67;;;;;19.59;52.09;101621.38;4995500;28;45537;-42
2022/05/10 02:16:52;;;;;;;;;28.33;26.67;;;;;19.58;51.20;101616.97;4995158;28;47709;-41
2022/05/10 02:19:50;;;;;;;;;28.00;28.00;;;;;19.56;50.43;101612.81;4995264;28;45319;-41
2022/05/10 02:22:24;;;;;;;;;30.33;26.67;;;;;19.52;52.06;101612.34;4994547;28;45374;-41
2022/05/10 02:24:58;;;;;;;;;32.33;26.33;;;;;19.45;52.46;101608.69;4995667;28;45499;-41
2022/05/10 02:27:39;;;;;;;;;29.67;27.00;;;;;19.29;52.80;101604.28;5041680;28;46452;-40
2022/05/10 02:30:09;;;;;;;;;27.00;25.67;;;;;19.35;53.15;101602.72;5054953;28;45432;-40
2022/05/10 02:35:32;;;;;;;;;36.00;27.33;;;;;19.32;53.41;101614.72;5055116;28;45420;-40
2022/05/10 02:37:57;;;;;;;;;26.33;23.33;;;;;19.27;53.60;101611.72;5054461;28;46345;-40
2022/05/10 02:40:23;;;;;;;;;35.33;28.33;;;;;19.29;53.66;101619.63;5054582;28;45445;-41
2022/05/10 02:42:49;;;;;;;;;30.33;28.00;;;;;19.28;53.21;101612.56;5055223;28;45484;-42
2022/05/10 02:45:19;;;;;;;;;30.67;28.67;;;;;19.16;53.54;101583.31;5069807;27;45442;-40
2022/05/10 02:47:47;;;;;;;;;33.67;30.00;;;;;19.22;53.55;101607.91;5097761;27;45222;-41
2022/05/10 02:50:26;;;;;;;;;33.67;31.00;;;;;19.20;53.30;101608.91;5097632;27;45423;-42
2022/05/10 02:52:52;;;;;;;;;32.00;24.67;;;;;19.19;53.37;101609.94;5097390;27;45461;-40
2022/05/10 02:55:25;;;;;;;;;33.00;29.33;;;;;19.19;53.64;101609.09;5097901;27;45222;-40
2022/05/10 02:57:54;;;;;;;;;31.33;29.67;;;;;19.15;53.71;101600.53;5097702;27;46369;-41
2022/05/10 03:00:23;;;;;;;;;30.00;26.00;;;;;19.14;53.54;101606.13;5097440;27;45768;-42
2022/05/10 03:02:52;;;;;;;;;36.00;29.67;;;;;19.12;53.66;101600.88;5097407;27;45335;-41
2022/05/10 03:05:17;;;;;;;;;33.67;27.00;;;;;19.11;53.12;101596.53;5097724;27;45574;-41
2022/05/10 03:07:42;;;;;;;;;28.33;24.00;;;;;19.04;53.29;101579.38;5096992;27;45449;-41
2022/05/10 03:10:09;;;;;;;;;31.00;26.33;;;;;19.11;54.19;101591.13;5097338;27;45287;-41
2022/05/10 03:12:34;;;;;;;;;29.67;27.67;;;;;19.12;53.42;101586.56;5097303;27;45780;-41
2022/05/10 03:15:00;;;;;;;;;31.00;27.33;;;;;19.08;54.28;101585.25;5096383;27;45405;-43
2022/05/10 03:17:26;;;;;;;;;32.67;29.33;;;;;19.11;54.08;101590.31;5097189;27;45331;-41
2022/05/10 03:19:51;;;;;;;;;30.00;27.33;;;;;19.10;54.19;101592.16;5113154;27;45320;-41
2022/05/10 03:22:17;;;;;;;;;31.33;27.33;;;;;19.08;54.41;101585.25;5097462;27;45350;-41
2022/05/10 03:24:43;;;;;;;;;33.33;30.33;;;;;19.04;53.92;101573.16;5097088;27;45519;-40
2022/05/10 03:27:10;;;;;;;;;29.67;28.33;;;;;19.11;54.22;101585.75;5097013;27;46088;-41
2022/05/10 03:29:36;;;;;;;;;33.00;26.67;;;;;19.09;54.15;101577.00;5097049;27;45363;-41
2022/05/10 03:32:02;;;;;;;;;33.33;31.33;;;;;19.09;54.01;101582.41;5097033;27;45252;-41
2022/05/10 03:37:12;;;;;;;;;32.00;27.33;;;;;18.89;54.16;101555.09;5096712;27;45788;-41
2022/05/10 03:39:37;;;;;;;;;34.00;27.67;;;;;18.90;54.47;101572.94;5096711;27;45471;-42
2022/05/10 03:42:03;;;;;;;;;33.67;29.67;;;;;18.88;54.79;101563.38;5097101;27;45276;-42
2022/05/10 03:44:33;;;;;;;;;26.33;25.00;;;;;18.91;54.27;101579.16;5097258;27;45386;-41
2022/05/10 03:46:58;;;;;;;;;33.33;27.00;;;;;18.91;54.50;101568.38;5095304;27;46133;-40
2022/05/10 03:49:24;;;;;;;;;31.00;25.67;;;;;18.90;54.81;101562.16;5096679;27;45504;-41
2022/05/10 03:51:49;;;;;;;;;32.67;29.00;;;;;18.90;54.49;101564.84;5097022;27;45548;-42
2022/05/10 03:54:15;;;;;;;;;28.33;25.67;;;;;18.94;54.65;101562.63;5096673;27;45403;-42
2022/05/10 03:56:40;;;;;;;;;32.00;29.00;;;;;18.93;54.78;101560.97;5096596;27;45501;-42
2022/05/10 03:59:06;;;;;;;;;38.33;31.33;;;;;18.90;54.00;101561.31;5096514;27;45317;-42
2022/05/10 04:01:31;;;;;;;;;28.00;25.67;;;;;18.86;54.06;101557.31;5096756;27;45331;-43
2022/05/10 04:03:56;;;;;;;;;29.00;27.67;;;;;18.87;54.52;101558.97;5096392;27;45596;-43
2022/05/10 04:06:22;;;;;;;;;31.33;26.67;;;;;18.81;55.00;101551.63;5096333;27;46239;-42
2022/05/10 04:08:47;;;;;;;;;28.67;25.33;;;;;18.85;54.57;101561.03;5096534;27;45328;-39
2022/05/10 04:11:14;;;;;;;;;29.00;25.00;;;;;18.79;54.58;101548.25;5096472;27;45406;-42
2022/05/10 04:13:41;;;;;;;;;30.33;29.00;;;;;18.85;54.71;101563.72;5096967;27;45429;-41
2022/05/10 04:16:07;;;;;;;;;30.33;25.00;;;;;18.85;54.19;101550.25;5096280;27;46241;-39
2022/05/10 04:18:33;;;;;;;;;32.00;27.67;;;;;18.82;54.14;101556.84;5096235;27;45451;-41
2022/05/10 04:20:59;;;;;;;;;32.00;28.00;;;;;18.85;54.42;101561.88;5096510;27;45358;-43
2022/05/10 04:23:25;;;;;;;;;25.33;25.33;;;;;18.86;54.37;101565.41;5096228;27;45373;-42
2022/05/10 04:25:51;;;;;;;;;27.00;26.33;;;;;18.86;54.64;101560.00;5096968;27;45350;-41
2022/05/10 04:28:17;;;;;;;;;28.00;26.67;;;;;18.85;54.39;101558.34;5099985;27;45444;-40
2022/05/10 04:30:43;;;;;;;;;29.00;25.33;;;;;18.75;55.04;101549.63;5100008;27;45428;-41
2022/05/10 04:33:09;;;;;;;;;28.67;28.67;;;;;18.78;54.63;101562.75;5100080;27;45406;-42
2022/05/10 04:35:34;;;;;;;;;28.33;25.33;;;;;18.78;54.75;101562.75;5099605;27;46330;-41
2022/05/10 04:38:01;;;;;;;;;34.33;26.67;;;;;18.77;53.65;101561.94;5099701;27;45331;-40
2022/05/10 04:43:10;;;;;;;;;27.67;26.00;;;;;18.76;54.65;101562.13;5099695;27;45505;-42
2022/05/10 04:45:38;;;;;;;;;32.33;29.00;;;;;18.73;54.73;101565.16;5099346;27;46184;-41
2022/05/10 04:48:03;;;;;;;;;32.33;26.67;;;;;18.73;54.44;101562.47;5098939;27;45492;-42
2022/05/10 04:50:29;;;;;;;;;33.00;30.33;;;;;18.66;54.91;101548.84;5099500;27;45304;-41
2022/05/10 04:52:54;;;;;;;;;33.33;29.33;;;;;18.72;54.58;101558.13;5099662;27;45396;-41
2022/05/10 04:55:20;;;;;;;;;33.67;28.33;;;;;18.76;53.99;101564.81;5099462;27;45311;-41
2022/05/10 04:57:46;;;;;;;;;26.33;26.33;;;;;18.76;54.46;101557.56;5099399;27;45448;-41
2022/05/10 05:00:14;;;;;;;;;29.67;27.33;;;;;18.76;54.36;101564.81;5099531;27;45441;-42
2022/05/10 05:02:42;;;;;;;;;27.67;25.67;;;;;18.76;54.24;101562.13;5099701;27;45375;-42
2022/05/10 05:05:10;;;;;;;;;28.67;25.67;;;;;18.76;54.49;101565.66;5099567;27;46115;-42
2022/05/10 05:07:35;;;;;;;;;28.67;26.00;;;;;18.78;54.29;101571.69;5099534;27;45375;-42
2022/05/10 05:10:02;;;;;;;;;30.00;27.67;;;;;18.76;54.52;101572.91;5099263;27;45309;-43
2022/05/10 05:12:28;;;;;;;;;32.67;26.00;;;;;18.75;54.01;101572.06;5099874;27;45427;-41
2022/05/10 05:14:54;;;;;;;;;33.67;25.67;;;;;18.78;54.09;101574.38;5099152;27;46370;-41
2022/05/10 05:17:19;;;;;;;;;29.33;26.67;;;;;18.78;53.71;101569.00;5098932;27;45316;-42
2022/05/10 05:19:45;;;;;;;;;26.33;26.33;;;;;18.78;53.99;101565.47;5099363;27;45311;-41
2022/05/10 05:22:10;;;;;;;;;28.67;27.00;;;;;18.75;54.19;101563.13;5099229;27;45322;-41
2022/05/10 05:24:35;;;;;;;;;33.00;27.67;;;;;18.65;54.08;101552.56;5098795;27;46279;-41
2022/05/10 05:27:01;;;;;;;;;33.00;24.00;;;;;18.70;54.21;101563.66;5097627;27;45429;-41
2022/05/10 05:29:27;;;;;;;;;34.00;28.67;;;;;18.70;54.06;101569.88;5098990;27;45432;-42
2022/05/10 05:31:53;;;;;;;;;28.67;24.67;;;;;18.71;53.91;101578.84;5099236;27;45270;-40
2022/05/10 05:34:19;;;;;;;;;24.67;24.67;;;;;18.62;54.21;101559.13;5098553;27;45683;-42
2022/05/10 05:37:32;;;;;;;;;25.33;24.33;;;;;18.70;53.89;101580.66;5098776;27;45463;-42
2022/05/10 05:39:30;;;;;;;;;36.33;30.33;;;;;18.61;53.82;101562.84;5098133;27;45334;-40
2022/05/10 05:41:56;;;;;;;;;27.67;27.33;;;;;18.69;54.04;101570.03;5098929;27;45345;-41
2022/05/10 05:44:23;;;;;;;;;29.67;24.33;;;;;18.72;53.87;101574.28;5098758;27;46247;-41
2022/05/10 05:46:49;;;;;;;;;31.00;26.00;;;;;18.75;54.05;101584.69;5098855;27;45379;-41
2022/05/10 05:49:14;;;;;;;;;37.67;28.33;;;;;18.78;53.92;101578.94;5098761;27;45557;-42
2022/05/10 05:51:39;;;;;;;;;32.00;28.67;;;;;18.80;54.01;101582.31;5098632;27;45500;-41
2022/05/10 05:54:08;;;;;;;;;29.67;25.67;;;;;18.80;53.83;101583.16;5097347;27;47084;-41
2022/05/10 05:56:34;;;;;;;;;33.67;27.67;;;;;18.84;53.33;101583.63;5098569;27;45445;-41
2022/05/10 05:58:59;;;;;;;;;25.33;25.33;;;;;18.93;53.36;101585.22;5098611;27;45375;-40
2022/05/10 06:01:25;;;;;;;;;29.00;28.33;;;;;18.95;52.83;101580.47;5098812;27;45435;-42
2022/05/10 06:03:51;;;;;;;;;32.67;26.67;;;;;19.06;52.89;101579.22;5098057;27;46108;-41
2022/05/10 06:06:17;;;;;;;;;26.67;26.67;;;;;19.10;52.81;101577.84;5098405;27;45479;-42
2022/05/10 06:08:43;;;;;;;;;29.33;25.33;;;;;19.15;52.32;101576.25;5098163;27;45317;-41
2022/05/10 06:11:08;;;;;;;;;31.33;29.33;;;;;19.17;52.25;101573.38;5098188;27;45236;-40
2022/05/10 06:13:36;;;;;;;;;25.00;25.00;;;;;19.27;51.80;101576.66;5098018;27;45319;-41
2022/05/10 06:16:07;;;;;;;;;26.33;24.33;;;;;19.35;51.48;101583.84;5097919;27;45407;-40
2022/05/10 06:18:32;;;;;;;;;31.67;24.00;;;;;19.39;51.70;101577.06;5097009;27;45443;-40
2022/05/10 06:20:57;;;;;;;;;26.33;25.67;;;;;19.45;51.81;101566.34;5098194;27;45666;-42
2022/05/10 06:23:23;;;;;;;;;27.67;26.33;;;;;19.51;51.62;101575.59;5098164;27;45356;-40
2022/05/10 06:25:48;;;;;;;;;36.33;25.00;;;;;19.61;51.25;101573.47;5097791;27;45381;-41
2022/05/10 06:28:13;;;;;;;;;26.67;25.67;;;;;19.71;51.25;101575.03;5098067;27;45350;-40
2022/05/10 06:30:39;;;;;;;;;29.33;25.33;;;;;19.80;50.74;101574.75;5098187;27;45375;-40
2022/05/10 06:33:04;;;;;;;;;29.67;24.00;;;;;19.92;50.65;101575.13;5096314;27;46193;-40
2022/05/10 06:35:30;;;;;;;;;27.33;24.33;;;;;20.09;50.18;101578.44;5097859;27;45460;-40
2022/05/10 06:40:40;;;;;;;;;29.00;27.67;;;;;20.42;49.66;101571.56;5097930;27;45381;-40
2022/05/10 06:43:05;;;;;;;;;27.00;23.33;;;;;20.56;48.76;101566.31;5097689;27;45334;-40
2022/05/10 06:45:31;;;;;;;;;28.00;25.00;;;;;20.81;48.80;101564.06;5097361;27;45433;-41
2022/05/10 06:47:56;;;;;;;;;30.33;26.33;;;;;21.02;47.75;101563.22;5097756;27;45383;-41
2022/05/10 06:50:24;;;;;;;;;29.33;25.67;;;;;21.21;47.39;101559.84;5098033;27;45406;-41
2022/05/10 06:52:51;;;;;;;;;28.00;27.33;;;;;21.42;46.71;101567.94;5097595;27;45386;-43
2022/05/10 06:55:17;;;;;;;;;29.00;28.67;;;;;21.58;46.57;101553.25;5097633;27;45412;-42
2022/05/10 06:57:43;;;;;;;;;26.33;24.33;;;;;21.75;46.58;101567.31;5097937;27;45441;-41
2022/05/10 07:00:12;;;;;;;;;30.33;27.67;;;;;21.92;46.09;101563.22;5097888;27;45455;-41
2022/05/10 07:02:38;;;;;;;;;23.33;23.33;;;;;22.20;46.00;101556.88;5097136;27;46118;-40
2022/05/10 07:05:04;;;;;;;;;26.67;25.33;;;;;22.39;45.55;101558.81;5097582;27;45684;-40
2022/05/10 07:07:30;;;;;;;;;31.33;26.67;;;;;22.51;44.76;101559.06;5097469;27;45367;-40
2022/05/10 07:09:55;;;;;;;;;31.00;26.00;;;;;22.63;44.46;101562.84;5097479;27;45595;-41
2022/05/10 07:12:21;;;;;;;;;28.67;25.67;;;;;22.73;44.38;101554.28;5097106;27;45501;-40
2022/05/10 07:14:46;;;;;;;;;25.00;22.67;;;;;22.95;44.68;101556.81;5097227;27;45391;-40
2022/05/10 07:17:13;;;;;;;;;27.33;26.00;;;;;23.14;43.36;101556.81;5097570;27;45390;-41
2022/05/10 07:19:38;;;;;;;;;23.00;22.67;;;;;23.42;43.21;101551.13;5097636;27;45279;-42
2022/05/10 07:22:04;;;;;;;;;26.67;21.33;;;;;23.63;42.56;101543.78;5096920;27;47028;-41
2022/05/10 07:24:29;;;;;;;;;29.33;23.00;;;;;23.71;41.87;101546.28;5097200;27;45455;-41
2022/05/10 07:26:55;;;;;;;;;23.33;19.67;;;;;23.72;41.61;101544.41;5097124;27;45386;-42
2022/05/10 07:29:22;;;;;;;;;23.00;20.00;;;;;23.73;41.51;101548.81;5097677;27;45486;-42
2022/05/10 07:31:47;;;;;;;;;19.33;19.33;;;;;23.74;40.82;101550.47;5096865;27;45389;-41
2022/05/10 07:34:13;;;;;;;;;20.33;19.00;;;;;23.81;40.71;101546.69;5097208;27;45262;-41
2022/05/10 07:36:39;;;;;;;;;20.00;18.00;;;;;24.02;40.06;101550.13;5097066;27;45493;-41
2022/05/10 07:39:07;;;;;;;;;18.00;17.00;;;;;24.68;39.25;101538.06;5097438;27;45401;-41
2022/05/10 07:41:33;;;;;;;;;18.75;17.25;;;;;25.57;37.32;101548.56;5097079;27;46660;-42
2022/05/10 07:43:59;;;;;;;;;20.25;16.00;;;;;26.24;37.47;101542.31;5096731;27;45401;-41
2022/05/10 07:46:25;;;;;;;;;18.00;18.00;;;;;26.33;35.60;101540.91;5097351;27;45216;-41
2022/05/10 07:48:51;;;;;;;;;19.00;16.75;;;;;26.10;38.03;101537.03;5097281;27;45270;-41
2022/05/10 07:51:18;;;;;;;;;17.75;16.75;;;;;25.58;37.49;101533.91;5096745;27;45875;-42
2022/05/10 07:53:44;;;;;;;;;16.00;16.00;;;;;25.26;37.35;101537.81;5096940;27;45666;-41
2022/05/10 07:56:10;;;;;;;;;16.25;16.25;;;;;25.12;37.80;101537.94;5096637;27;45417;-41
2022/05/10 07:58:36;;;;;;;;;20.00;17.50;;;;;25.20;37.84;101536.81;5097207;27;45363;-41
2022/05/10 08:01:03;;;;;;;;;18.50;16.50;;;;;25.53;38.10;101532.88;5095701;27;45864;-41
2022/05/10 08:03:29;;;;;;;;;18.75;15.50;;;;;26.90;36.12;101529.56;5112265;27;45390;-42
2022/05/10 08:05:56;;;;;;;;;17.50;16.25;;;;;29.40;32.94;101521.53;5096785;27;45308;-41
2022/05/10 08:08:23;;;;;;;;;18.00;18.00;;;;;31.62;29.10;101524.19;5097016;27;45233;-42
2022/05/10 08:10:50;;;;;;;;;16.60;15.60;;;;;32.18;27.72;101527.94;5096703;27;46658;-41
2022/05/10 08:13:21;;;;;;;;;14.40;13.80;;;;;32.76;28.38;101522.25;5096325;27;45456;-42
2022/05/10 08:15:47;;;;;;;;;18.40;17.40;;;;;32.40;27.46;101526.91;5096510;27;45236;-41
2022/05/10 08:18:13;;;;;;;;;16.75;15.50;;;;;32.67;28.02;101523.91;5096735;27;45318;-42
2022/05/10 08:20:40;;;;;;;;;15.60;15.60;;;;;32.16;27.63;101529.34;5112256;27;45901;-41
2022/05/10 08:23:09;;;;;;;;;17.80;16.20;;;;;31.37;28.08;101525.72;5096261;27;45729;-42
2022/05/10 08:25:35;;;;;;;;;14.20;14.20;;;;;30.78;29.19;101531.34;5096514;27;45384;-39
2022/05/10 08:28:01;;;;;;;;;15.00;15.00;;;;;30.92;29.39;101535.28;5096487;27;45252;-40
2022/05/10 08:30:27;;;;;;;;;14.40;14.40;;;;;31.47;28.71;101538.69;5095911;27;46255;-41
2022/05/10 08:32:52;;;;;;;;;16.50;15.00;;;;;32.28;27.15;101527.16;5096414;27;45415;-41
2022/05/10 08:35:18;;;;;;;;;12.00;11.00;;;;;32.14;27.57;101526.84;5096269;27;45232;-42
2022/05/10 08:37:43;;;;;;;;;14.50;13.75;;;;;32.22;27.26;101526.31;5095341;27;46229;-40
2022/05/10 08:40:26;;;;;;;;;14.25;13.00;;;;;33.60;26.63;101533.69;5096172;27;46295;-41
2022/05/10 08:42:55;;;;;;;;;15.20;14.60;;;;;34.47;25.52;101528.47;5096231;27;45527;-41
2022/05/10 08:45:24;;;;;;;;;13.20;13.20;;;;;34.58;25.42;101527.31;5096385;27;45268;-41
2022/05/10 08:47:50;;;;;;;;;15.80;13.40;;;;;34.57;24.95;101527.63;5096699;27;45220;-40
2022/05/10 08:50:16;;;;;;;;;14.00;14.00;;;;;35.78;24.31;101518.31;5095887;27;46520;-40
2022/05/10 08:52:46;;;;;;;;;13.75;13.75;;;;;37.89;20.56;101515.19;5096239;27;45297;-40
2022/05/10 08:55:15;;;;;;;;;12.80;11.80;;;;;38.71;20.39;101515.97;5096001;27;45421;-41
2022/05/10 08:57:55;;;;;;;;;14.20;12.80;;;;;39.45;21.62;101518.16;5096090;27;45359;-40
2022/05/10 09:00:35;;;;;;;;;18.80;13.80;;;;;41.15;18.43;101507.56;5096149;27;45597;-41
2022/05/10 09:03:21;;;;;;;;;11.80;11.80;;;;;43.10;16.89;101518.91;5095979;27;45592;-40
2022/05/10 09:05:48;;;;;;;;;15.80;12.60;;;;;44.40;15.89;101509.69;5096379;27;45416;-40
2022/05/10 09:08:29;;;;;;;;;12.40;11.20;;;;;45.58;15.59;101510.69;5096186;27;45461;-42
2022/05/10 09:11:00;;;;;;;;;11.00;11.00;;;;;46.53;17.40;101515.88;5095695;27;47048;-41
2022/05/10 09:13:26;;;;;;;;;10.00;8.80;;;;;47.09;13.03;101511.66;5097174;27;45425;-41
2022/05/10 09:15:54;;;;;;;;;11.50;10.00;;;;;47.54;13.95;101515.53;5099313;27;45468;-42
2022/05/10 09:18:22;;;;;;;;;10.20;9.00;;;;;47.91;14.39;101516.44;5099807;27;45358;-44
2022/05/10 09:21:11;;;;;;;;;12.20;10.20;;;;;48.26;13.79;101514.47;5099138;27;45491;-41
2022/05/10 09:23:55;;;;;;;;;11.60;10.20;;;;;48.52;12.25;101507.91;5099051;27;45329;-41
2022/05/10 09:26:25;;;;;;;;;9.80;8.20;;;;;49.10;12.50;101507.22;5099351;27;45365;-42
2022/05/10 09:29:19;;;;;;;;;11.00;11.00;;;;;49.53;13.21;101499.03;5099412;27;45323;-41
2022/05/10 09:34:47;;;;;;;;;15.00;10.40;;;;;47.42;12.14;101500.50;5099190;27;45465;-41
2022/05/10 09:37:30;;;;;;;;;8.60;8.60;;;;;45.41;15.53;101497.88;5099148;27;45407;-41
2022/05/10 09:39:55;;;;;;;;;11.80;11.80;;;;;43.94;15.36;101497.94;5099195;27;45720;-41
2022/05/10 09:42:35;;;;;;;;;11.00;11.00;;;;;43.07;17.20;101496.44;5098719;27;45536;-41
2022/05/10 09:45:02;;;;;;;;;12.80;12.80;;;;;42.47;16.62;101492.31;5098751;27;45186;-41
2022/05/10 09:47:28;;;;;;;;;11.40;9.80;;;;;42.24;16.49;101494.69;5098908;27;45452;-41
2022/05/10 09:50:10;;;;;;;;;10.80;9.00;;;;;42.64;15.42;101475.34;5099096;27;45347;-41
2022/05/10 09:52:36;;;;;;;;;11.60;10.40;;;;;43.71;14.78;101484.44;5098554;27;45457;-41
2022/05/10 09:55:07;;;;;;;;;12.00;10.00;;;;;44.69;13.89;101494.44;5098535;27;45238;-41
2022/05/10 09:57:37;;;;;;;;;12.00;10.20;;;;;44.90;14.91;101488.56;5098551;27;45356;-42
2022/05/10 10:00:08;;;;;;;;;11.80;11.40;;;;;45.08;14.72;101484.22;5098656;27;45448;-41
2022/05/10 10:02:38;;;;;;;;;12.00;12.00;;;;;44.63;14.33;101479.84;5098376;27;46245;-41
2022/05/10 10:05:29;;;;;;;;;13.20;12.40;;;;;44.04;14.60;101475.03;5114245;27;45373;-42
2022/05/10 10:07:57;;;;;;;;;10.40;9.60;;;;;44.77;13.96;101483.03;5098306;27;45522;-41
2022/05/10 10:10:36;;;;;;;;;9.40;8.20;;;;;45.91;12.99;101464.44;5098733;27;45477;-41
2022/05/10 10:13:23;;;;;;;;;12.40;9.40;;;;;47.00;12.01;101472.47;5098413;27;46035;-41
2022/05/10 10:15:49;;;;;;;;;10.60;9.80;;;;;47.80;12.41;101469.59;5098250;27;45450;-41
2022/05/10 10:18:40;;;;;;;;;8.75;7.75;;;;;48.05;12.05;101469.91;5098468;27;45280;-41
2022/05/10 10:21:09;;;;;;;;;10.60;9.20;;;;;48.46;11.26;101465.09;5114364;27;45550;-42
2022/05/10 10:23:38;;;;;;;;;12.00;12.00;;;;;48.01;11.73;101463.41;5097756;27;46312;-41
2022/05/10 10:26:20;;;;;;;;;8.00;8.00;;;;;46.56;12.86;101466.47;5098000;27;45504;-41
2022/05/10 10:28:50;;;;;;;;;8.60;8.60;;;;;45.69;13.84;101469.59;5098085;27;45307;-43
2022/05/10 10:31:26;;;;;;;;;10.40;9.00;;;;;44.93;13.12;101468.19;5098134;27;45820;-42
2022/05/10 10:34:03;;;;;;;;;10.80;10.80;;;;;44.63;13.96;101474.25;5097883;27;45709;-41
2022/05/10 10:36:37;;;;;;;;;10.00;10.00;;;;;45.60;13.56;101477.41;5097656;27;45384;-42
2022/05/10 10:39:30;;;;;;;;;9.40;8.20;;;;;46.91;11.89;101469.09;5098021;27;45441;-41
2022/05/10 10:41:55;;;;;;;;;9.80;9.80;;;;;47.85;11.05;101480.53;5098131;27;45402;-42
2022/05/10 10:44:23;;;;;;;;;10.50;10.50;;;;;48.57;11.07;101476.50;5097940;27;46608;-47
2022/05/10 10:47:06;;;;;;;;;11.80;10.80;;;;;48.88;11.32;101469.50;5097712;27;45438;-41
2022/05/10 10:49:47;;;;;;;;;10.40;9.40;;;;;49.18;10.83;101467.34;5098066;27;45464;-40
2022/05/10 10:52:14;;;;;;;;;5.40;5.40;;;;;49.28;10.37;101468.59;5098226;27;45414;-41
2022/05/10 10:54:41;;;;;;;;;9.00;7.40;;;;;49.31;10.94;101464.97;5097652;27;45407;-41
2022/05/10 10:57:15;;;;;;;;;9.40;9.40;;;;;48.71;11.08;101460.47;5097419;27;45405;-41
2022/05/10 11:00:18;;;;;;;;;7.80;7.80;;;;;47.91;11.56;101465.69;5097713;27;45517;-44
2022/05/10 11:03:16;;;;;;;;;8.60;8.00;;;;;47.70;12.11;101469.06;5097734;27;45390;-40
2022/05/10 11:06:18;;;;;;;;;9.80;9.80;;;;;47.32;11.01;101480.59;5097462;27;46142;-40
2022/05/10 11:09:06;;;;;;;;;10.60;9.00;;;;;46.96;12.34;101457.53;5097454;27;45413;-40
2022/05/10 11:12:06;;;;;;;;;9.40;8.80;;;;;46.87;12.02;101448.50;5097728;27;45855;-42
2022/05/10 11:14:53;;;;;;;;;5.80;5.80;;;;;46.34;11.87;101451.19;5097788;27;46300;-41
2022/05/10 11:17:40;;;;;;;;;8.20;8.20;;;;;45.80;12.48;101447.31;5113195;27;45615;-42
2022/05/10 11:20:15;;;;;;;;;7.80;7.80;;;;;43.93;13.30;101401.81;5097357;27;45350;-41
2022/05/10 11:22:49;;;;;;;;;13.40;10.60;;;;;42.28;14.37;101431.34;5097726;27;45397;-44
2022/05/10 11:25:45;;;;;;;;;9.80;8.40;;;;;40.56;15.90;101437.72;5097726;27;45588;-42
2022/05/10 11:28:17;;;;;;;;;10.00;8.20;;;;;39.15;16.45;101434.38;5096996;27;45467;-48
2022/05/10 11:31:01;;;;;;;;;11.60;8.00;;;;;37.68;18.12;101429.53;5113113;27;45288;-41
2022/05/10 11:33:35;;;;;;;;;11.00;9.20;;;;;36.72;18.48;101429.56;5097368;27;45430;-41
2022/05/10 11:36:22;;;;;;;;;9.40;7.20;;;;;35.89;19.16;101434.81;5096401;27;45539;-42
2022/05/10 11:38:59;;;;;;;;;9.60;9.20;;;;;35.36;19.90;101418.41;5096897;27;45468;-40
2022/05/10 11:42:11;;;;;;;;;9.00;9.00;;;;;34.82;19.71;101422.34;5097146;27;45528;-41
2022/05/10 11:44:47;;;;;;;;;9.00;9.00;;;;;33.96;21.05;101422.03;5097150;27;45442;-45